Aviation Digital Data Service (ADDS)

Output produced by METARs form (2337 UTC 31 October 2014)
found at http://aviationweather.gov/adds/metars/
 
KHPN 312038Z 3121/0118 05007KT P6SM FEW030 OVC050 
     TEMPO 0101/0103 -RA 
     FM010300 03010KT P6SM -RA OVC025 
     FM010700 02014G21KT 5SM -RA BR OVC015 
     FM011500 02016G26KT 4SM RA BR OVC012 AMD NOT SKED